54NC weather

Dillard Airport
Winfall, North Carolina, United States

Public forecast

Using degrees Fahrenheit for public forecast. Weather courtesy of forecast.io.

Closest aviation weather report (METAR) to Dillard Airport

Closest report is Elizabeth City Regional Airport & Coast Guard Air Station, 11.8 nm (21.9 km) E. Retrieved 2020/02/19 20:54 UTC (1 hour ago):

KECG 192054Z 01008KT 10SM BKN075 OVC090 10/M01 A3035 RMK AO2 SLP275 T01001011 53010

Closest aviation forecast (TAF) to Dillard Airport

Closest forecast is Elizabeth City Regional Airport & Coast Guard Air Station, 11.8 nm (21.9 km) E. Retrieved 2020/02/19 18:24 UTC (4 hours ago):

TAF TAF KECG 191721Z 1918/2018 01014KT P6SM OVC060 FM192200 02008KT P6SM OVC080 FM200200 02007KT P6SM OVC090 FM201700 03012KT P6SM OVC050